Time;durP1;ratioP1;P1;durP2;ratioP2;P2;SDS_P1;SDS_P2;PMS_P1;PMS_P2;Temp;Humidity;BMP_temperature;BMP_pressure;BME280_temperature;BME280_humidity;BME280_pressure;Samples;Min_cycle;Max_cycle;Signal;HPM_P1;HPM_P2
2023/10/11 00:02:59;;;;;;;3.25;1.90;;;;;;;;;;4978739;28;20307;-73
2023/10/11 00:05:24;;;;;;;;;;;;;;;;;;4988179;28;20108;-74
2023/10/11 00:07:51;;;;;;;4.07;1.85;;;;;;;;;;4964892;28;19918;-73
2023/10/11 00:10:19;;;;;;;3.47;2.05;;;;;;;;;;4952662;28;20529;-74
2023/10/11 00:12:50;;;;;;;3.22;1.85;;;;;;;;;;4961416;28;20031;-74
2023/10/11 00:15:15;;;;;;;3.95;2.00;;;;;;;;;;4981800;28;20038;-74
2023/10/11 00:17:41;;;;;;;4.75;2.25;;;;;;;;;;4985949;28;20058;-74
2023/10/11 00:22:55;;;;;;;3.10;1.80;;;;;;;;;;4938199;28;20081;-73
2023/10/11 00:25:24;;;;;;;3.85;2.15;;;;;;;;;;4968036;28;20051;-73
2023/10/11 00:27:50;;;;;;;3.17;1.92;;;;;;;;;;4976651;28;20137;-74
2023/10/11 00:30:17;;;;;;;3.40;2.05;;;;;;;;;;4996475;28;20045;-74
2023/10/11 00:32:44;;;;;;;2.72;1.73;;;;;;;;;;4979420;28;20065;-73
2023/10/11 00:35:18;;;;;;;4.35;2.10;;;;;;;;;;4978450;28;20058;-74
2023/10/11 00:37:44;;;;;;;2.95;1.92;;;;;;;;;;4975831;28;20041;-73
2023/10/11 00:40:13;;;;;;;3.50;1.85;;;;;;;;;;4986132;28;20042;-73
2023/10/11 00:42:39;;;;;;;4.03;1.92;;;;;;;;;;4997314;28;20034;-72
2023/10/11 00:45:07;;;;;;;3.53;1.98;;;;;;;;;;4987727;28;20384;-73
2023/10/11 00:47:40;;;;;;;3.33;1.73;;;;;;;;;;4987963;28;20162;-73
2023/10/11 00:50:07;;;;;;;4.10;2.00;;;;;;;;;;5001418;28;20026;-73
2023/10/11 00:52:34;;;;;;;3.58;2.30;;;;;;;;;;4998402;28;20014;-73
2023/10/11 00:55:00;;;;;;;3.33;1.95;;;;;;;;;;4987797;28;20022;-72
2023/10/11 00:57:25;;;;;;;3.25;1.92;;;;;;;;;;4983292;28;20051;-73
2023/10/11 00:59:51;;;;;;;3.03;1.80;;;;;;;;;;4979173;28;20039;-73
2023/10/11 01:02:16;;;;;;;2.38;1.73;;;;;;;;;;4979772;28;20298;-73
2023/10/11 01:04:42;;;;;;;4.05;2.28;;;;;;;;;;4971614;28;20038;-73
2023/10/11 01:07:08;;;;;;;3.75;2.10;;;;;;;;;;4967750;28;20030;-73
2023/10/11 01:09:37;;;;;;;3.22;1.80;;;;;;;;;;4970902;28;20053;-73
2023/10/11 01:12:02;;;;;;;3.38;2.05;;;;;;;;;;4967716;28;20044;-73
2023/10/11 01:14:28;;;;;;;3.83;1.98;;;;;;;;;;4971635;28;20056;-73
2023/10/11 01:16:53;;;;;;;3.95;1.92;;;;;;;;;;4986223;28;20084;-73
2023/10/11 01:19:18;;;;;;;4.25;1.85;;;;;;;;;;4986519;28;20582;-72
2023/10/11 01:21:48;;;;;;;4.40;2.10;;;;;;;;;;4985282;28;20346;-73
2023/10/11 01:24:16;;;;;;;4.57;2.00;;;;;;;;;;4967716;28;20446;-73
2023/10/11 01:26:42;;;;;;;3.90;1.88;;;;;;;;;;4982457;28;20111;-73
2023/10/11 01:29:07;;;;;;;3.90;2.20;;;;;;;;;;4986017;28;20030;-72
2023/10/11 01:31:35;;;;;;;4.13;2.13;;;;;;;;;;4986119;28;20034;-73
2023/10/11 01:34:00;;;;;;;4.32;2.10;;;;;;;;;;4978324;28;20356;-73
2023/10/11 01:36:26;;;;;;;4.23;2.10;;;;;;;;;;4967025;28;20050;-72
2023/10/11 01:38:51;;;;;;;2.60;1.63;;;;;;;;;;4966913;28;20282;-73
2023/10/11 01:41:20;;;;;;;3.25;2.05;;;;;;;;;;4967494;28;20037;-72
2023/10/11 01:43:46;;;;;;;3.08;1.83;;;;;;;;;;4985249;28;20112;-73
2023/10/11 01:46:16;;;;;;;4.20;2.00;;;;;;;;;;4967144;28;20118;-72
2023/10/11 01:48:41;;;;;;;5.00;1.98;;;;;;;;;;4984469;28;20046;-73
2023/10/11 01:51:09;;;;;;;3.20;1.80;;;;;;;;;;4984541;28;20134;-73
2023/10/11 01:53:35;;;;;;;3.03;1.90;;;;;;;;;;4985630;28;20285;-73
2023/10/11 01:56:01;;;;;;;3.47;1.90;;;;;;;;;;4985544;28;20053;-72
2023/10/11 01:58:26;;;;;;;4.38;2.20;;;;;;;;;;4985925;28;20030;-73
2023/10/11 02:00:53;;;;;;;3.23;2.00;;;;;;;;;;4999879;28;20037;-73
2023/10/11 02:03:18;;;;;;;3.67;1.83;;;;;;;;;;4969018;28;20431;-73
2023/10/11 02:05:43;;;;;;;4.60;2.03;;;;;;;;;;4967610;28;20136;-73
2023/10/11 02:08:13;;;;;;;3.38;1.90;;;;;;;;;;4985394;28;20273;-73
2023/10/11 02:10:39;;;;;;;3.30;2.00;;;;;;;;;;4995377;28;20046;-72
2023/10/11 02:13:06;;;;;;;4.13;2.20;;;;;;;;;;4985588;28;20045;-73
2023/10/11 02:15:34;;;;;;;3.03;2.10;;;;;;;;;;4984610;28;20054;-74
2023/10/11 02:17:59;;;;;;;3.22;1.95;;;;;;;;;;4984024;28;20034;-73
2023/10/11 02:20:25;;;;;;;3.03;2.08;;;;;;;;;;4994090;28;20500;-75
2023/10/11 02:22:55;;;;;;;4.20;2.15;;;;;;;;;;4998842;28;20035;-72
2023/10/11 02:25:24;;;;;;;3.55;1.88;;;;;;;;;;4980123;28;20536;-72
2023/10/11 02:27:49;;;;;;;4.75;2.38;;;;;;;;;;4984000;28;20148;-72
2023/10/11 02:30:20;;;;;;;3.25;2.00;;;;;;;;;;4991504;28;20034;-72
2023/10/11 02:32:46;;;;;;;3.00;2.03;;;;;;;;;;4989314;28;20037;-76
2023/10/11 02:35:13;;;;;;;2.55;1.90;;;;;;;;;;4985559;28;20451;-74
2023/10/11 02:37:38;;;;;;;3.90;2.08;;;;;;;;;;4985739;28;20042;-75
2023/10/11 02:40:08;;;;;;;4.13;2.13;;;;;;;;;;4984201;28;20037;-74
2023/10/11 02:42:36;;;;;;;3.45;1.70;;;;;;;;;;4956860;28;20035;-73
2023/10/11 02:45:06;;;;;;;3.80;1.65;;;;;;;;;;4955357;28;20035;-74
2023/10/11 02:47:31;;;;;;;3.25;1.80;;;;;;;;;;4971062;28;20149;-71
2023/10/11 02:50:03;;;;;;;3.80;1.93;;;;;;;;;;4973535;28;20038;-71
2023/10/11 02:52:39;;;;;;;4.10;1.75;;;;;;;;;;4968283;28;20304;-71
2023/10/11 02:55:21;;;;;;;4.68;2.30;;;;;;;;;;4959857;28;20137;-72
2023/10/11 02:57:47;;;;;;;3.90;2.10;;;;;;;;;;4966871;28;20034;-72
2023/10/11 03:00:22;;;;;;;3.03;2.03;;;;;;;;;;4969704;28;20038;-72
2023/10/11 03:02:54;;;;;;;4.78;2.20;;;;;;;;;;4985208;28;20125;-71
2023/10/11 03:05:27;;;;;;;4.22;2.55;;;;;;;;;;4983669;28;20021;-72
2023/10/11 03:07:52;;;;;;;2.72;1.90;;;;;;;;;;4967009;28;20030;-73
2023/10/11 03:10:18;;;;;;;3.00;1.92;;;;;;;;;;4968556;28;20022;-73
2023/10/11 03:12:44;;;;;;;3.25;1.80;;;;;;;;;;4949972;28;20023;-72
2023/10/11 03:15:11;;;;;;;4.22;1.88;;;;;;;;;;4946989;28;20012;-72
2023/10/11 03:17:43;;;;;;;4.55;2.20;;;;;;;;;;4967409;28;20458;-73
2023/10/11 03:20:30;;;;;;;3.08;1.60;;;;;;;;;;4984581;28;20041;-73
2023/10/11 03:22:59;;;;;;;2.85;1.85;;;;;;;;;;4977050;28;20094;-73
2023/10/11 03:25:24;;;;;;;;;;;;;;;;;;4959179;28;20138;-72
2023/10/11 03:27:49;;;;;;;3.85;1.73;;;;;;;;;;4965697;28;20013;-73
2023/10/11 03:30:15;;;;;;;3.47;1.97;;;;;;;;;;4983991;28;20093;-72
2023/10/11 03:32:43;;;;;;;3.78;1.88;;;;;;;;;;4965962;28;20289;-73
2023/10/11 03:35:10;;;;;;;4.28;1.88;;;;;;;;;;4962800;28;20057;-73
2023/10/11 03:37:37;;;;;;;3.45;1.92;;;;;;;;;;4976819;28;20027;-73
2023/10/11 03:40:12;;;;;;;2.70;1.83;;;;;;;;;;4973630;28;20038;-73
2023/10/11 03:42:59;;;;;;;3.33;2.10;;;;;;;;;;4988605;28;20096;-73
2023/10/11 03:45:27;;;;;;;3.13;1.80;;;;;;;;;;4986735;28;20073;-73
2023/10/11 03:47:58;;;;;;;3.38;1.90;;;;;;;;;;4969832;28;20043;-73
2023/10/11 03:50:32;;;;;;;3.03;1.73;;;;;;;;;;4956842;28;20043;-73
2023/10/11 03:53:06;;;;;;;2.67;1.65;;;;;;;;;;4969062;28;20053;-73
2023/10/11 03:55:31;;;;;;;2.92;1.80;;;;;;;;;;4959099;28;20039;-73
2023/10/11 03:57:57;;;;;;;3.13;1.73;;;;;;;;;;4968256;28;20185;-73
2023/10/11 04:00:25;;;;;;;3.70;1.67;;;;;;;;;;4987512;28;20529;-74
2023/10/11 04:02:57;;;;;;;3.63;1.95;;;;;;;;;;4975380;28;20332;-73
2023/10/11 04:05:22;;;;;;;2.95;1.83;;;;;;;;;;4970928;28;20043;-73
2023/10/11 04:07:47;;;;;;;3.25;1.95;;;;;;;;;;4964228;28;20486;-73
2023/10/11 04:10:20;;;;;;;2.70;1.43;;;;;;;;;;4953085;28;20043;-74
2023/10/11 04:12:45;;;;;;;2.75;1.80;;;;;;;;;;4954962;28;20346;-72
2023/10/11 04:15:24;;;;;;;3.30;1.90;;;;;;;;;;4944959;28;20043;-73
2023/10/11 04:17:55;;;;;;;2.83;1.70;;;;;;;;;;4978414;28;20461;-73
2023/10/11 04:20:32;;;;;;;3.80;1.70;;;;;;;;;;4987683;28;20030;-73
2023/10/11 04:23:10;;;;;;;2.95;1.90;;;;;;;;;;4988069;28;20069;-73
2023/10/11 04:25:38;;;;;;;3.25;1.80;;;;;;;;;;4963456;28;20043;-73
2023/10/11 04:28:05;;;;;;;2.38;1.70;;;;;;;;;;4983830;28;20036;-73
2023/10/11 04:30:53;;;;;;;3.13;1.90;;;;;;;;;;4979600;28;20038;-73
2023/10/11 04:33:21;;;;;;;3.28;1.80;;;;;;;;;;4987687;28;20049;-73
2023/10/11 04:35:55;;;;;;;3.17;1.90;;;;;;;;;;4976371;28;20105;-72
2023/10/11 04:38:20;;;;;;;2.97;1.90;;;;;;;;;;4966830;28;20066;-72
2023/10/11 04:40:51;;;;;;;3.97;2.30;;;;;;;;;;4954643;28;20588;-74
2023/10/11 04:43:26;;;;;;;6.60;3.88;;;;;;;;;;4979192;28;20038;-72
2023/10/11 04:46:00;;;;;;;6.43;3.50;;;;;;;;;;4966824;28;20712;-70
2023/10/11 04:48:39;;;;;;;6.22;3.97;;;;;;;;;;4968988;28;20058;-74
2023/10/11 04:53:56;;;;;;;7.05;3.00;;;;;;;;;;4984283;28;20622;-73
2023/10/11 04:59:36;;;;;;;7.00;3.10;;;;;;;;;;4966270;28;20054;-72
2023/10/11 05:02:07;;;;;;;5.22;2.67;;;;;;;;;;4981538;28;20038;-73
2023/10/11 05:04:33;;;;;;;5.57;2.75;;;;;;;;;;4986325;28;20165;-73
2023/10/11 05:07:09;;;;;;;5.75;2.55;;;;;;;;;;4986564;28;20069;-74
2023/10/11 05:09:38;;;;;;;5.18;2.80;;;;;;;;;;4981267;28;20046;-74
2023/10/11 05:12:12;;;;;;;4.93;2.22;;;;;;;;;;4984649;28;20035;-74
2023/10/11 05:14:40;;;;;;;4.13;2.30;;;;;;;;;;4959124;28;20046;-75
2023/10/11 05:19:46;;;;;;;5.78;2.30;;;;;;;;;;4975040;28;20052;-74
2023/10/11 05:22:29;;;;;;;4.00;2.20;;;;;;;;;;4974925;28;20046;-74
2023/10/11 05:52:08;;;;;;;6.03;2.17;;;;;;;;;;4974197;28;20092;-74
2023/10/11 05:54:34;;;;;;;4.07;2.03;;;;;;;;;;4956211;28;20027;-76
2023/10/11 05:57:03;;;;;;;5.13;2.28;;;;;;;;;;4973848;28;20528;-78
2023/10/11 05:59:32;;;;;;;5.80;2.33;;;;;;;;;;4973527;28;20019;-71
2023/10/11 06:01:57;;;;;;;4.45;2.08;;;;;;;;;;4954882;28;20424;-71
2023/10/11 06:04:23;;;;;;;3.92;2.40;;;;;;;;;;4971759;28;20031;-71
2023/10/11 06:06:52;;;;;;;6.18;2.33;;;;;;;;;;4974416;28;20113;-75
2023/10/11 06:09:17;;;;;;;4.70;2.03;;;;;;;;;;4972299;28;20180;-74
2023/10/11 06:11:49;;;;;;;5.43;2.50;;;;;;;;;;4973001;28;20125;-72
2023/10/11 06:14:16;;;;;;;6.32;1.90;;;;;;;;;;4973069;28;20068;-72
2023/10/11 06:16:43;;;;;;;4.97;2.00;;;;;;;;;;4977420;28;20124;-74
2023/10/11 06:19:18;;;;;;;3.05;1.90;;;;;;;;;;4981587;28;20528;-73
2023/10/11 06:21:56;;;;;;;4.32;2.13;;;;;;;;;;4974920;28;20113;-73
2023/10/11 06:24:22;;;;;;;5.30;2.50;;;;;;;;;;4969945;28;20124;-72
2023/10/11 06:29:16;;;;;;;5.35;2.13;;;;;;;;;;4969370;28;20035;-71
2023/10/11 06:31:43;;;;;;;3.38;2.00;;;;;;;;;;4947063;28;20035;-72
2023/10/11 06:36:49;;;;;;;5.45;2.40;;;;;;;;;;4960452;28;20038;-75
2023/10/11 06:42:12;;;;;;;4.72;1.90;;;;;;;;;;4972801;28;20540;-74
2023/10/11 06:44:37;;;;;;;4.45;2.10;;;;;;;;;;4942818;28;20043;-73
2023/10/11 06:47:03;;;;;;;4.63;2.13;;;;;;;;;;4964634;28;20057;-76
2023/10/11 06:49:32;;;;;;;3.42;1.80;;;;;;;;;;4955077;28;20901;-75
2023/10/11 06:52:01;;;;;;;4.73;2.10;;;;;;;;;;4956181;28;20046;-75
2023/10/11 06:54:32;;;;;;;4.18;2.20;;;;;;;;;;4956001;28;20423;-75
2023/10/11 06:56:57;;;;;;;5.38;2.10;;;;;;;;;;4956947;28;20043;-74
2023/10/11 06:59:22;;;;;;;2.53;1.77;;;;;;;;;;4958867;28;20050;-75
2023/10/11 07:01:47;;;;;;;3.50;1.90;;;;;;;;;;4959568;28;20302;-75
2023/10/11 07:04:18;;;;;;;3.17;1.80;;;;;;;;;;4959167;28;20646;-75
2023/10/11 07:06:43;;;;;;;4.80;2.00;;;;;;;;;;4957087;28;20133;-75
2023/10/11 07:09:19;;;;;;;4.75;1.90;;;;;;;;;;4956084;28;20169;-90
2023/10/11 07:11:50;;;;;;;4.55;1.80;;;;;;;;;;4976566;28;20421;-82
2023/10/11 07:14:15;;;;;;;3.95;2.40;;;;;;;;;;4966467;28;20512;-82
2023/10/11 07:16:44;;;;;;;4.68;1.70;;;;;;;;;;4980366;28;20028;-81
2023/10/11 07:19:11;;;;;;;3.92;2.15;;;;;;;;;;4985002;28;20489;-82
2023/10/11 07:22:02;;;;;;;5.72;2.10;;;;;;;;;;4980193;28;20029;-82
2023/10/11 07:27:09;;;;;;;4.50;2.10;;;;;;;;;;4983662;28;20065;-84
2023/10/11 07:29:35;;;;;;;5.43;2.10;;;;;;;;;;4986993;28;20041;-83
2023/10/11 07:32:01;;;;;;;3.90;1.98;;;;;;;;;;4979603;28;20038;-83
2023/10/11 07:34:27;;;;;;;3.13;2.03;;;;;;;;;;4978502;28;20035;-81
2023/10/11 07:36:52;;;;;;;7.22;1.80;;;;;;;;;;4975731;28;20072;-82
2023/10/11 07:41:49;;;;;;;6.15;2.28;;;;;;;;;;4967224;28;20281;-81
2023/10/11 07:44:18;;;;;;;4.63;2.15;;;;;;;;;;4983363;28;20082;-80
2023/10/11 07:46:43;;;;;;;4.60;2.08;;;;;;;;;;4962748;28;20071;-82
2023/10/11 07:49:14;;;;;;;4.95;2.25;;;;;;;;;;4941927;28;20085;-81
2023/10/11 07:51:39;;;;;;;6.05;1.95;;;;;;;;;;4962782;28;20034;-81
2023/10/11 07:54:08;;;;;;;5.50;2.20;;;;;;;;;;4970321;28;20034;-81
2023/10/11 07:56:35;;;;;;;4.57;2.20;;;;;;;;;;4945280;28;20396;-81
2023/10/11 07:59:07;;;;;;;4.68;1.98;;;;;;;;;;4944055;28;20035;-81
2023/10/11 08:01:42;;;;;;;3.95;2.20;;;;;;;;;;4957307;28;20042;-82
2023/10/11 08:04:08;;;;;;;4.10;2.10;;;;;;;;;;4971160;28;20121;-81
2023/10/11 08:06:37;;;;;;;5.00;2.67;;;;;;;;;;4978001;28;20508;-77
2023/10/11 08:09:03;;;;;;;24.08;3.78;;;;;;;;;;4961984;28;20034;-78
2023/10/11 08:11:36;;;;;;;8.43;2.75;;;;;;;;;;4975797;28;20030;-78
2023/10/11 08:14:03;;;;;;;10.32;3.20;;;;;;;;;;4983400;28;20031;-77
2023/10/11 08:16:33;;;;;;;12.68;3.15;;;;;;;;;;4979339;28;20038;-77
2023/10/11 08:18:58;;;;;;;7.55;3.35;;;;;;;;;;4960447;28;20031;-77
2023/10/11 08:21:23;;;;;;;10.45;3.50;;;;;;;;;;4959780;28;20434;-77
2023/10/11 08:23:50;;;;;;;16.23;3.47;;;;;;;;;;4976726;28;20126;-78
2023/10/11 08:26:16;;;;;;;12.13;3.22;;;;;;;;;;4961448;28;20736;-78
2023/10/11 08:28:48;;;;;;;7.55;3.33;;;;;;;;;;4958681;28;20081;-77
2023/10/11 08:34:00;;;;;;;9.10;3.15;;;;;;;;;;4973518;28;20046;-78
2023/10/11 08:36:29;;;;;;;11.73;3.53;;;;;;;;;;4958545;28;20078;-78
2023/10/11 08:38:55;;;;;;;7.43;2.90;;;;;;;;;;4959359;28;20405;-78
2023/10/11 08:41:22;;;;;;;13.32;3.47;;;;;;;;;;4976151;28;20057;-79
2023/10/11 08:43:49;;;;;;;15.25;3.80;;;;;;;;;;4975379;28;20019;-78
2023/10/11 08:46:17;;;;;;;9.27;3.45;;;;;;;;;;4972150;28;20139;-78
2023/10/11 08:48:42;;;;;;;8.35;3.10;;;;;;;;;;4957348;28;20042;-78
2023/10/11 08:51:12;;;;;;;12.73;4.13;;;;;;;;;;4959503;28;20406;-77
2023/10/11 08:53:46;;;;;;;7.85;2.90;;;;;;;;;;4957085;28;20061;-74
2023/10/11 08:56:14;;;;;;;6.30;3.30;;;;;;;;;;4962729;28;20049;-75
2023/10/11 08:58:40;;;;;;;8.23;2.85;;;;;;;;;;4979655;28;20039;-77
2023/10/11 09:01:05;;;;;;;7.57;3.00;;;;;;;;;;4965460;28;20080;-75
2023/10/11 09:03:39;;;;;;;8.95;3.13;;;;;;;;;;4986100;28;20424;-75
2023/10/11 09:06:05;;;;;;;8.80;3.00;;;;;;;;;;4978268;28;20134;-74
2023/10/11 09:08:31;;;;;;;8.68;3.25;;;;;;;;;;4971647;28;20031;-75
2023/10/11 09:11:06;;;;;;;6.68;3.10;;;;;;;;;;4960075;28;20556;-72
2023/10/11 09:13:36;;;;;;;5.60;2.90;;;;;;;;;;4979553;28;20038;-75
2023/10/11 09:16:01;;;;;;;6.15;2.60;;;;;;;;;;4989438;28;20026;-75
2023/10/11 09:18:34;;;;;;;7.15;2.63;;;;;;;;;;4987902;28;20106;-75
2023/10/11 09:21:08;;;;;;;4.70;2.75;;;;;;;;;;4987283;28;20031;-76
2023/10/11 09:23:34;;;;;;;5.78;3.25;;;;;;;;;;4982310;28;20520;-75
2023/10/11 09:26:00;;;;;;;5.55;2.70;;;;;;;;;;4953983;28;20039;-75
2023/10/11 09:28:28;;;;;;;9.02;3.10;;;;;;;;;;4974762;28;20473;-75
2023/10/11 09:31:12;;;;;;;5.22;2.85;;;;;;;;;;4964262;28;20100;-74
2023/10/11 09:33:40;;;;;;;5.35;2.60;;;;;;;;;;4957327;28;20429;-75
2023/10/11 09:36:08;;;;;;;6.60;2.70;;;;;;;;;;4958497;28;20534;-76
2023/10/11 09:38:39;;;;;;;6.03;2.90;;;;;;;;;;4983848;28;20227;-74
2023/10/11 09:41:07;;;;;;;4.97;2.55;;;;;;;;;;4975742;28;20126;-74
2023/10/11 09:43:33;;;;;;;5.85;2.75;;;;;;;;;;4974253;28;20042;-72
2023/10/11 09:45:59;;;;;;;5.22;2.70;;;;;;;;;;4943185;28;20055;-73
2023/10/11 09:48:24;;;;;;;5.93;2.87;;;;;;;;;;4954191;28;20058;-75
2023/10/11 09:50:49;;;;;;;5.53;2.70;;;;;;;;;;4960485;28;20298;-75
2023/10/11 09:53:15;;;;;;;6.22;2.47;;;;;;;;;;4957764;28;20035;-72
2023/10/11 09:55:51;;;;;;;10.07;2.70;;;;;;;;;;4966347;28;20116;-73
2023/10/11 09:58:41;;;;;;;7.82;3.08;;;;;;;;;;4977200;28;20133;-75
2023/10/11 10:01:11;;;;;;;6.90;3.00;;;;;;;;;;4976693;28;20657;-74
2023/10/11 10:03:45;;;;;;;5.38;2.88;;;;;;;;;;4976570;28;20037;-75
2023/10/11 10:06:32;;;;;;;7.07;2.80;;;;;;;;;;4960801;28;20525;-74
2023/10/11 10:09:24;;;;;;;6.43;2.92;;;;;;;;;;4977325;28;20030;-73
2023/10/11 10:12:09;;;;;;;6.72;3.10;;;;;;;;;;4960907;28;20078;-74
2023/10/11 10:14:41;;;;;;;6.05;2.55;;;;;;;;;;4955217;28;20631;-75
2023/10/11 10:17:13;;;;;;;8.45;2.67;;;;;;;;;;4936781;28;20109;-74
2023/10/11 10:19:47;;;;;;;7.53;2.58;;;;;;;;;;4961586;28;20196;-74
2023/10/11 10:22:16;;;;;;;7.45;2.80;;;;;;;;;;4964057;28;20087;-74
2023/10/11 10:24:44;;;;;;;4.05;2.60;;;;;;;;;;4943516;28;20046;-75
2023/10/11 10:27:37;;;;;;;5.55;3.08;;;;;;;;;;4961166;28;20042;-75
2023/10/11 10:30:05;;;;;;;5.32;2.70;;;;;;;;;;4979678;28;20144;-76
2023/10/11 10:32:32;;;;;;;4.63;2.70;;;;;;;;;;4977050;28;20066;-75
2023/10/11 10:35:18;;;;;;;5.30;2.83;;;;;;;;;;4957574;28;20100;-73
2023/10/11 10:37:56;;;;;;;7.72;3.03;;;;;;;;;;4954363;28;20070;-81
2023/10/11 10:40:25;;;;;;;4.10;2.67;;;;;;;;;;4961991;28;20173;-82
2023/10/11 10:43:08;;;;;;;5.13;2.72;;;;;;;;;;4967884;28;20031;-81
2023/10/11 10:45:34;;;;;;;7.00;2.97;;;;;;;;;;4972872;28;20691;-81
2023/10/11 10:48:13;;;;;;;7.68;2.97;;;;;;;;;;4959778;28;20106;-82
2023/10/11 10:51:05;;;;;;;12.00;3.20;;;;;;;;;;4961375;28;20058;-82
2023/10/11 10:53:40;;;;;;;6.47;3.08;;;;;;;;;;4963229;28;20042;-82
2023/10/11 10:56:06;;;;;;;6.45;2.75;;;;;;;;;;4963038;28;20098;-82
2023/10/11 10:58:31;;;;;;;6.70;3.00;;;;;;;;;;4966436;28;20119;-82
2023/10/11 11:00:59;;;;;;;6.75;3.03;;;;;;;;;;4964544;28;20482;-81
2023/10/11 11:03:25;;;;;;;11.52;3.50;;;;;;;;;;4973624;28;20097;-82
2023/10/11 11:05:56;;;;;;;8.77;3.10;;;;;;;;;;4963896;28;20155;-82
2023/10/11 11:08:27;;;;;;;7.10;2.80;;;;;;;;;;4962910;28;20077;-83
2023/10/11 11:11:25;;;;;;;6.72;2.95;;;;;;;;;;4962627;28;20540;-82
2023/10/11 11:13:51;;;;;;;6.25;2.90;;;;;;;;;;4981992;28;20039;-83
2023/10/11 11:16:16;;;;;;;5.53;2.78;;;;;;;;;;4985942;28;20339;-82
2023/10/11 11:18:43;;;;;;;3.70;2.65;;;;;;;;;;4983189;28;20039;-82
2023/10/11 11:21:25;;;;;;;6.78;2.78;;;;;;;;;;4981734;28;20045;-82
2023/10/11 11:23:50;;;;;;;6.63;2.63;;;;;;;;;;4981909;28;20042;-83
2023/10/11 11:26:16;;;;;;;6.10;2.38;;;;;;;;;;4984521;28;20038;-83
2023/10/11 11:28:45;;;;;;;4.45;2.47;;;;;;;;;;4966285;28;20687;-84
2023/10/11 11:34:06;;;;;;;3.85;2.33;;;;;;;;;;4972105;28;20034;-83
2023/10/11 11:36:31;;;;;;;4.68;2.50;;;;;;;;;;4961907;28;20049;-82
2023/10/11 11:39:16;;;;;;;5.38;2.70;;;;;;;;;;4962965;28;20045;-81
2023/10/11 11:41:42;;;;;;;5.57;2.67;;;;;;;;;;4981293;28;20154;-82
2023/10/11 11:44:08;;;;;;;3.63;2.28;;;;;;;;;;4983696;28;20643;-81
2023/10/11 11:46:33;;;;;;;4.55;2.40;;;;;;;;;;4967187;28;20043;-82
2023/10/11 11:49:08;;;;;;;4.50;2.57;;;;;;;;;;4979492;28;20069;-82
2023/10/11 11:51:33;;;;;;;4.90;2.60;;;;;;;;;;4963181;28;20298;-82
2023/10/11 11:53:58;;;;;;;3.90;2.50;;;;;;;;;;4987462;28;20101;-82
2023/10/11 11:56:23;;;;;;;3.73;2.37;;;;;;;;;;4956132;28;20297;-81
2023/10/11 11:58:50;;;;;;;3.63;2.17;;;;;;;;;;4952171;29;20750;-82
2023/10/11 12:01:15;;;;;;;4.97;2.60;;;;;;;;;;4957539;28;20294;-81
2023/10/11 12:03:41;;;;;;;2.63;2.05;;;;;;;;;;4987911;28;20041;-81
2023/10/11 12:06:21;;;;;;;3.97;2.28;;;;;;;;;;4956731;28;20146;-81
2023/10/11 12:08:46;;;;;;;;;;;;;;;;;;4952770;28;20046;-81
2023/10/11 12:11:15;;;;;;;3.65;2.10;;;;;;;;;;4964464;28;19977;-80
2023/10/11 12:13:40;;;;;;;2.63;2.00;;;;;;;;;;4988807;28;20101;-81
2023/10/11 12:16:09;;;;;;;4.20;2.28;;;;;;;;;;4988359;28;20042;-80
2023/10/11 12:18:34;;;;;;;3.25;2.38;;;;;;;;;;4984352;28;20784;-80
2023/10/11 12:21:10;;;;;;;3.38;2.15;;;;;;;;;;4979094;28;20077;-81
2023/10/11 12:23:36;;;;;;;3.33;1.92;;;;;;;;;;4969448;28;20136;-82
2023/10/11 12:26:04;;;;;;;4.30;2.40;;;;;;;;;;4962510;28;20031;-82
2023/10/11 12:28:29;;;;;;;3.90;2.05;;;;;;;;;;4972646;28;20568;-82
2023/10/11 12:30:54;;;;;;;4.70;2.17;;;;;;;;;;4988400;28;20041;-81
2023/10/11 12:33:20;;;;;;;3.50;2.30;;;;;;;;;;4983015;28;20031;-82
2023/10/11 12:35:45;;;;;;;4.03;2.00;;;;;;;;;;4971806;28;20414;-81
2023/10/11 12:38:12;;;;;;;3.83;1.90;;;;;;;;;;4971377;28;20033;-81
2023/10/11 12:40:40;;;;;;;2.58;1.92;;;;;;;;;;4969457;28;20281;-80
2023/10/11 12:43:07;;;;;;;3.22;2.22;;;;;;;;;;4968075;28;20031;-81
2023/10/11 12:45:33;;;;;;;4.38;1.98;;;;;;;;;;4984271;28;20298;-79
2023/10/11 12:47:58;;;;;;;3.13;2.33;;;;;;;;;;4968276;28;20043;-80
2023/10/11 12:50:24;;;;;;;4.18;2.40;;;;;;;;;;4966236;28;20064;-80
2023/10/11 12:52:53;;;;;;;3.70;2.23;;;;;;;;;;4949414;28;20046;-80
2023/10/11 12:55:20;;;;;;;4.53;2.10;;;;;;;;;;4989387;28;20373;-80
2023/10/11 12:57:45;;;;;;;3.03;2.22;;;;;;;;;;4988854;28;20044;-81
2023/10/11 13:03:29;;;;;;;4.97;2.22;;;;;;;;;;4939698;28;20566;-79
2023/10/11 13:05:55;;;;;;;5.03;2.78;;;;;;;;;;4969906;28;20548;-79
2023/10/11 13:08:26;;;;;;;3.40;2.20;;;;;;;;;;4980007;28;20038;-80
2023/10/11 13:10:52;;;;;;;4.07;2.30;;;;;;;;;;4977777;28;20038;-81
2023/10/11 13:13:17;;;;;;;3.00;2.00;;;;;;;;;;4950037;28;20037;-77
2023/10/11 13:15:55;;;;;;;3.58;1.90;;;;;;;;;;4979816;28;20108;-76
2023/10/11 13:18:20;;;;;;;3.00;2.10;;;;;;;;;;4978819;28;20207;-76
2023/10/11 13:20:45;;;;;;;6.85;2.13;;;;;;;;;;4979730;28;20593;-77
2023/10/11 13:23:11;;;;;;;3.72;2.30;;;;;;;;;;4967760;28;20424;-77
2023/10/11 13:25:36;;;;;;;4.20;2.47;;;;;;;;;;4978089;28;20042;-81
2023/10/11 13:28:03;;;;;;;3.63;2.05;;;;;;;;;;4987196;28;20496;-81
2023/10/11 13:30:28;;;;;;;4.40;2.33;;;;;;;;;;4984481;28;20037;-80
2023/10/11 13:32:57;;;;;;;3.17;2.05;;;;;;;;;;4968165;28;20125;-79
2023/10/11 13:35:23;;;;;;;7.03;2.08;;;;;;;;;;4972888;28;20038;-74
2023/10/11 13:37:48;;;;;;;2.55;1.88;;;;;;;;;;4959524;28;20150;-74
2023/10/11 13:40:14;;;;;;;4.10;2.22;;;;;;;;;;4956765;28;20786;-72
2023/10/11 13:42:42;;;;;;;5.03;2.40;;;;;;;;;;4964009;28;20039;-73
2023/10/11 13:45:09;;;;;;;4.00;2.05;;;;;;;;;;4970430;28;20035;-71
2023/10/11 13:47:36;;;;;;;4.57;2.17;;;;;;;;;;4958773;28;20114;-74
2023/10/11 13:50:08;;;;;;;4.55;2.30;;;;;;;;;;4990769;28;20057;-73
2023/10/11 13:52:36;;;;;;;4.75;2.17;;;;;;;;;;4974957;28;20038;-72
2023/10/11 13:55:07;;;;;;;5.20;2.15;;;;;;;;;;4988825;28;20194;-79
2023/10/11 13:57:33;;;;;;;5.72;1.88;;;;;;;;;;4984915;28;20030;-74
2023/10/11 14:00:41;;;;;;;3.33;2.00;;;;;;;;;;4990313;28;20042;-73
2023/10/11 14:02:45;;;;;;;3.90;2.35;;;;;;;;;;4981351;28;20279;-74
2023/10/11 14:05:13;;;;;;;3.95;1.92;;;;;;;;;;4966518;28;20022;-75
2023/10/11 14:07:51;;;;;;;5.35;2.30;;;;;;;;;;4970027;28;20057;-73
2023/10/11 14:10:22;;;;;;;4.45;2.17;;;;;;;;;;4968530;28;20027;-73
2023/10/11 14:12:48;;;;;;;4.93;1.95;;;;;;;;;;4959218;28;20090;-73
2023/10/11 14:15:19;;;;;;;4.40;2.10;;;;;;;;;;4962878;28;20034;-74
2023/10/11 14:17:47;;;;;;;3.65;1.70;;;;;;;;;;4969387;28;20065;-79
2023/10/11 14:20:19;;;;;;;3.58;1.90;;;;;;;;;;4999397;28;20030;-79
2023/10/11 14:22:49;;;;;;;3.60;2.10;;;;;;;;;;4967191;28;20787;-80
2023/10/11 14:25:14;;;;;;;4.43;1.80;;;;;;;;;;4965191;28;20046;-79
2023/10/11 14:27:40;;;;;;;4.40;1.73;;;;;;;;;;4978614;28;20049;-79
2023/10/11 14:30:06;;;;;;;3.43;2.00;;;;;;;;;;4990030;28;20035;-79
2023/10/11 14:32:33;;;;;;;5.50;1.83;;;;;;;;;;4973577;28;20849;-80
2023/10/11 14:35:03;;;;;;;4.40;1.80;;;;;;;;;;4985749;28;20026;-73
2023/10/11 14:37:29;;;;;;;3.83;1.67;;;;;;;;;;4980653;28;20049;-75
2023/10/11 14:39:54;;;;;;;2.67;1.67;;;;;;;;;;4972459;28;20140;-74
2023/10/11 14:42:22;;;;;;;3.60;1.80;;;;;;;;;;4964155;28;20545;-74
2023/10/11 14:44:47;;;;;;;4.53;1.55;;;;;;;;;;4956502;28;21085;-74
2023/10/11 14:47:13;;;;;;;3.13;1.80;;;;;;;;;;4965374;28;20034;-74
2023/10/11 14:49:39;;;;;;;2.58;1.65;;;;;;;;;;4975099;28;20038;-76
2023/10/11 14:52:07;;;;;;;5.30;1.67;;;;;;;;;;4979892;28;20524;-75
2023/10/11 14:54:33;;;;;;;4.78;1.70;;;;;;;;;;4967132;28;20034;-74
2023/10/11 14:57:00;;;;;;;3.85;1.70;;;;;;;;;;4965252;28;20042;-74
2023/10/11 14:59:26;;;;;;;3.38;1.70;;;;;;;;;;4972002;28;20075;-74
2023/10/11 15:01:51;;;;;;;2.57;1.73;;;;;;;;;;4982363;28;20039;-73
2023/10/11 15:04:16;;;;;;;3.47;1.63;;;;;;;;;;4974908;28;20787;-74
2023/10/11 15:06:45;;;;;;;4.20;1.55;;;;;;;;;;4985930;28;20359;-73
2023/10/11 15:09:10;;;;;;;5.40;1.65;;;;;;;;;;4974903;28;20539;-74
2023/10/11 15:11:35;;;;;;;4.20;2.03;;;;;;;;;;4977021;28;20070;-74
2023/10/11 15:14:03;;;;;;;6.15;1.83;;;;;;;;;;4984725;28;20677;-73
2023/10/11 15:16:32;;;;;;;2.65;1.58;;;;;;;;;;4983646;28;20030;-73
2023/10/11 15:18:57;;;;;;;4.43;1.60;;;;;;;;;;4972715;28;20042;-73
2023/10/11 15:21:22;;;;;;;4.23;2.17;;;;;;;;;;4965784;28;20057;-73
2023/10/11 15:23:48;;;;;;;3.85;1.77;;;;;;;;;;4970385;28;20322;-73
2023/10/11 15:26:13;;;;;;;3.65;1.92;;;;;;;;;;4957284;28;20679;-73
2023/10/11 15:28:40;;;;;;;4.53;2.13;;;;;;;;;;4978101;28;20519;-73
2023/10/11 15:31:06;;;;;;;5.00;1.90;;;;;;;;;;4953069;28;20326;-72
2023/10/11 15:33:31;;;;;;;4.53;2.20;;;;;;;;;;4942479;28;20073;-73
2023/10/11 15:35:56;;;;;;;7.63;2.17;;;;;;;;;;4978499;28;20819;-73
2023/10/11 15:38:24;;;;;;;6.70;2.30;;;;;;;;;;4971996;28;20043;-74
2023/10/11 15:40:59;;;;;;;3.80;2.03;;;;;;;;;;4963124;28;20664;-73
2023/10/11 15:43:25;;;;;;;3.53;2.00;;;;;;;;;;4984332;28;20108;-73
2023/10/11 15:45:54;;;;;;;4.07;1.75;;;;;;;;;;4988597;28;20579;-73
2023/10/11 15:48:19;;;;;;;4.70;2.22;;;;;;;;;;4989476;28;20878;-76
2023/10/11 15:50:45;;;;;;;6.18;2.20;;;;;;;;;;4988011;28;20042;-73
2023/10/11 15:53:13;;;;;;;3.88;2.10;;;;;;;;;;4980427;28;20473;-76
2023/10/11 15:55:40;;;;;;;3.58;1.90;;;;;;;;;;4979529;28;20062;-76